sensor_id;sensor_type;location;lat;lon;timestamp;P1;durP1;ratioP1;P2;durP2;ratioP2
69703;SDS011;56967;43.538;-5.646;2022-11-20T00:00:43;1.15;;;0.80;;
69703;SDS011;56967;43.538;-5.646;2022-11-20T00:03:08;0.77;;;0.60;;
69703;SDS011;56967;43.538;-5.646;2022-11-20T00:05:34;0.80;;;0.70;;
69703;SDS011;56967;43.538;-5.646;2022-11-20T00:07:59;1.45;;;0.65;;
69703;SDS011;56967;43.538;-5.646;2022-11-20T00:10:25;0.80;;;0.70;;
69703;SDS011;56967;43.538;-5.646;2022-11-20T00:12:53;0.80;;;0.60;;
69703;SDS011;56967;43.538;-5.646;2022-11-20T00:15:19;1.02;;;0.63;;
69703;SDS011;56967;43.538;-5.646;2022-11-20T00:17:44;1.00;;;0.65;;
69703;SDS011;56967;43.538;-5.646;2022-11-20T00:20:10;1.17;;;0.63;;
69703;SDS011;56967;43.538;-5.646;2022-11-20T00:22:36;1.40;;;0.90;;
69703;SDS011;56967;43.538;-5.646;2022-11-20T00:25:01;1.38;;;0.70;;
69703;SDS011;56967;43.538;-5.646;2022-11-20T00:27:27;0.93;;;0.70;;
69703;SDS011;56967;43.538;-5.646;2022-11-20T00:29:52;0.95;;;0.73;;
69703;SDS011;56967;43.538;-5.646;2022-11-20T00:32:18;1.30;;;0.70;;
69703;SDS011;56967;43.538;-5.646;2022-11-20T00:34:44;1.38;;;0.65;;
69703;SDS011;56967;43.538;-5.646;2022-11-20T00:37:09;1.10;;;0.80;;
69703;SDS011;56967;43.538;-5.646;2022-11-20T00:39:34;1.67;;;0.75;;
69703;SDS011;56967;43.538;-5.646;2022-11-20T00:42:00;1.33;;;0.60;;
69703;SDS011;56967;43.538;-5.646;2022-11-20T00:44:25;0.73;;;0.60;;
69703;SDS011;56967;43.538;-5.646;2022-11-20T00:46:51;1.65;;;0.63;;
69703;SDS011;56967;43.538;-5.646;2022-11-20T00:49:16;1.30;;;0.60;;
69703;SDS011;56967;43.538;-5.646;2022-11-20T00:51:42;2.03;;;0.80;;
69703;SDS011;56967;43.538;-5.646;2022-11-20T00:54:07;0.93;;;0.70;;
69703;SDS011;56967;43.538;-5.646;2022-11-20T00:56:33;1.40;;;1.00;;
69703;SDS011;56967;43.538;-5.646;2022-11-20T00:58:59;1.38;;;0.70;;
69703;SDS011;56967;43.538;-5.646;2022-11-20T01:01:25;4.22;;;0.85;;
69703;SDS011;56967;43.538;-5.646;2022-11-20T01:03:54;1.58;;;0.75;;
69703;SDS011;56967;43.538;-5.646;2022-11-20T01:06:23;1.10;;;0.70;;
69703;SDS011;56967;43.538;-5.646;2022-11-20T01:08:51;1.17;;;0.57;;
69703;SDS011;56967;43.538;-5.646;2022-11-20T01:11:19;0.82;;;0.63;;
69703;SDS011;56967;43.538;-5.646;2022-11-20T01:13:47;1.13;;;0.70;;
69703;SDS011;56967;43.538;-5.646;2022-11-20T01:16:19;0.55;;;0.43;;
69703;SDS011;56967;43.538;-5.646;2022-11-20T01:18:49;2.95;;;0.68;;
69703;SDS011;56967;43.538;-5.646;2022-11-20T01:21:17;0.60;;;0.50;;
69703;SDS011;56967;43.538;-5.646;2022-11-20T01:23:48;1.10;;;0.60;;
69703;SDS011;56967;43.538;-5.646;2022-11-20T01:26:16;1.20;;;0.57;;
69703;SDS011;56967;43.538;-5.646;2022-11-20T01:28:49;0.75;;;0.68;;
69703;SDS011;56967;43.538;-5.646;2022-11-20T01:33:46;0.73;;;0.50;;
69703;SDS011;56967;43.538;-5.646;2022-11-20T01:36:13;1.20;;;0.70;;
69703;SDS011;56967;43.538;-5.646;2022-11-20T01:38:40;0.90;;;0.60;;
69703;SDS011;56967;43.538;-5.646;2022-11-20T01:41:06;0.57;;;0.50;;
69703;SDS011;56967;43.538;-5.646;2022-11-20T01:43:32;0.80;;;0.55;;
69703;SDS011;56967;43.538;-5.646;2022-11-20T01:45:59;0.75;;;0.52;;
69703;SDS011;56967;43.538;-5.646;2022-11-20T01:51:39;0.80;;;0.55;;
69703;SDS011;56967;43.538;-5.646;2022-11-20T01:54:38;0.57;;;0.50;;
69703;SDS011;56967;43.538;-5.646;2022-11-20T01:57:09;0.95;;;0.65;;
69703;SDS011;56967;43.538;-5.646;2022-11-20T01:59:41;0.70;;;0.50;;
69703;SDS011;56967;43.538;-5.646;2022-11-20T02:02:12;0.60;;;0.50;;
69703;SDS011;56967;43.538;-5.646;2022-11-20T02:04:38;4.43;;;0.80;;
69703;SDS011;56967;43.538;-5.646;2022-11-20T02:07:04;0.63;;;0.50;;
69703;SDS011;56967;43.538;-5.646;2022-11-20T02:09:30;0.50;;;0.50;;
69703;SDS011;56967;43.538;-5.646;2022-11-20T02:11:56;0.63;;;0.43;;
69703;SDS011;56967;43.538;-5.646;2022-11-20T02:14:23;0.40;;;0.40;;
69703;SDS011;56967;43.538;-5.646;2022-11-20T02:16:49;0.85;;;0.50;;
69703;SDS011;56967;43.538;-5.646;2022-11-20T02:19:23;0.57;;;0.50;;
69703;SDS011;56967;43.538;-5.646;2022-11-20T02:24:35;0.50;;;0.50;;
69703;SDS011;56967;43.538;-5.646;2022-11-20T02:29:38;0.75;;;0.30;;
69703;SDS011;56967;43.538;-5.646;2022-11-20T02:32:23;1.67;;;0.43;;
69703;SDS011;56967;43.538;-5.646;2022-11-20T02:34:51;0.30;;;0.30;;
69703;SDS011;56967;43.538;-5.646;2022-11-20T02:37:17;0.40;;;0.40;;
69703;SDS011;56967;43.538;-5.646;2022-11-20T02:39:44;0.40;;;0.35;;
69703;SDS011;56967;43.538;-5.646;2022-11-20T02:42:11;0.43;;;0.40;;
69703;SDS011;56967;43.538;-5.646;2022-11-20T02:44:37;0.40;;;0.40;;
69703;SDS011;56967;43.538;-5.646;2022-11-20T02:47:03;1.20;;;0.30;;
69703;SDS011;56967;43.538;-5.646;2022-11-20T02:49:28;0.73;;;0.60;;
69703;SDS011;56967;43.538;-5.646;2022-11-20T02:51:54;0.30;;;0.30;;
69703;SDS011;56967;43.538;-5.646;2022-11-20T02:54:19;0.50;;;0.40;;
69703;SDS011;56967;43.538;-5.646;2022-11-20T02:56:45;0.63;;;0.30;;
69703;SDS011;56967;43.538;-5.646;2022-11-20T02:59:10;0.50;;;0.40;;
69703;SDS011;56967;43.538;-5.646;2022-11-20T03:01:36;0.77;;;0.40;;
69703;SDS011;56967;43.538;-5.646;2022-11-20T03:04:03;0.57;;;0.32;;
69703;SDS011;56967;43.538;-5.646;2022-11-20T03:06:28;0.30;;;0.30;;
69703;SDS011;56967;43.538;-5.646;2022-11-20T03:08:54;0.52;;;0.40;;
69703;SDS011;56967;43.538;-5.646;2022-11-20T03:11:19;1.77;;;0.40;;
69703;SDS011;56967;43.538;-5.646;2022-11-20T03:13:45;0.38;;;0.38;;
69703;SDS011;56967;43.538;-5.646;2022-11-20T03:16:12;0.63;;;0.38;;
69703;SDS011;56967;43.538;-5.646;2022-11-20T03:18:39;0.38;;;0.35;;
69703;SDS011;56967;43.538;-5.646;2022-11-20T03:21:06;0.30;;;0.30;;
69703;SDS011;56967;43.538;-5.646;2022-11-20T03:23:32;1.05;;;0.60;;
69703;SDS011;56967;43.538;-5.646;2022-11-20T03:26:08;0.93;;;0.32;;
69703;SDS011;56967;43.538;-5.646;2022-11-20T03:28:36;0.30;;;0.30;;
69703;SDS011;56967;43.538;-5.646;2022-11-20T03:31:20;0.50;;;0.35;;
69703;SDS011;56967;43.538;-5.646;2022-11-20T03:33:47;0.63;;;0.20;;
69703;SDS011;56967;43.538;-5.646;2022-11-20T03:36:14;0.40;;;0.30;;
69703;SDS011;56967;43.538;-5.646;2022-11-20T03:38:40;0.50;;;0.30;;
69703;SDS011;56967;43.538;-5.646;2022-11-20T03:41:09;0.57;;;0.28;;
69703;SDS011;56967;43.538;-5.646;2022-11-20T03:43:48;0.77;;;0.25;;
69703;SDS011;56967;43.538;-5.646;2022-11-20T03:46:14;0.30;;;0.30;;
69703;SDS011;56967;43.538;-5.646;2022-11-20T03:48:39;0.30;;;0.30;;
69703;SDS011;56967;43.538;-5.646;2022-11-20T03:53:38;1.02;;;0.40;;
69703;SDS011;56967;43.538;-5.646;2022-11-20T03:56:05;0.77;;;0.40;;
69703;SDS011;56967;43.538;-5.646;2022-11-20T03:58:32;0.47;;;0.30;;
69703;SDS011;56967;43.538;-5.646;2022-11-20T04:01:03;0.30;;;0.30;;
69703;SDS011;56967;43.538;-5.646;2022-11-20T04:03:30;1.25;;;0.20;;
69703;SDS011;56967;43.538;-5.646;2022-11-20T04:05:55;1.95;;;0.30;;
69703;SDS011;56967;43.538;-5.646;2022-11-20T04:08:28;1.48;;;0.60;;
69703;SDS011;56967;43.538;-5.646;2022-11-20T04:10:53;1.52;;;0.50;;
69703;SDS011;56967;43.538;-5.646;2022-11-20T04:13:19;1.63;;;0.70;;
69703;SDS011;56967;43.538;-5.646;2022-11-20T04:15:44;1.50;;;0.63;;
69703;SDS011;56967;43.538;-5.646;2022-11-20T04:18:10;1.35;;;0.60;;
69703;SDS011;56967;43.538;-5.646;2022-11-20T04:20:35;1.85;;;0.80;;
69703;SDS011;56967;43.538;-5.646;2022-11-20T04:23:01;1.65;;;0.98;;
69703;SDS011;56967;43.538;-5.646;2022-11-20T04:25:26;2.53;;;0.90;;
69703;SDS011;56967;43.538;-5.646;2022-11-20T04:27:52;1.42;;;0.90;;
69703;SDS011;56967;43.538;-5.646;2022-11-20T04:30:17;3.17;;;1.17;;
69703;SDS011;56967;43.538;-5.646;2022-11-20T04:32:43;2.03;;;0.90;;
69703;SDS011;56967;43.538;-5.646;2022-11-20T04:35:08;1.92;;;0.80;;
69703;SDS011;56967;43.538;-5.646;2022-11-20T04:37:34;2.08;;;0.85;;
69703;SDS011;56967;43.538;-5.646;2022-11-20T04:39:59;2.30;;;1.08;;
69703;SDS011;56967;43.538;-5.646;2022-11-20T04:42:24;1.23;;;0.60;;
69703;SDS011;56967;43.538;-5.646;2022-11-20T04:44:53;1.20;;;0.60;;
69703;SDS011;56967;43.538;-5.646;2022-11-20T04:47:19;0.50;;;0.40;;
69703;SDS011;56967;43.538;-5.646;2022-11-20T04:49:45;0.65;;;0.32;;
69703;SDS011;56967;43.538;-5.646;2022-11-20T04:52:10;0.30;;;0.30;;
69703;SDS011;56967;43.538;-5.646;2022-11-20T04:54:36;0.68;;;0.38;;
69703;SDS011;56967;43.538;-5.646;2022-11-20T04:57:01;1.00;;;0.70;;
69703;SDS011;56967;43.538;-5.646;2022-11-20T04:59:27;0.30;;;0.30;;
69703;SDS011;56967;43.538;-5.646;2022-11-20T05:01:53;0.25;;;0.25;;
69703;SDS011;56967;43.538;-5.646;2022-11-20T05:04:18;0.28;;;0.25;;
69703;SDS011;56967;43.538;-5.646;2022-11-20T05:06:44;0.60;;;0.30;;
69703;SDS011;56967;43.538;-5.646;2022-11-20T05:09:10;0.60;;;0.40;;
69703;SDS011;56967;43.538;-5.646;2022-11-20T05:11:36;0.80;;;0.40;;
69703;SDS011;56967;43.538;-5.646;2022-11-20T05:14:02;2.63;;;2.30;;
69703;SDS011;56967;43.538;-5.646;2022-11-20T05:16:27;0.73;;;0.70;;
69703;SDS011;56967;43.538;-5.646;2022-11-20T05:18:53;0.63;;;0.52;;
69703;SDS011;56967;43.538;-5.646;2022-11-20T05:21:21;0.52;;;0.40;;
69703;SDS011;56967;43.538;-5.646;2022-11-20T05:23:46;0.88;;;0.73;;
69703;SDS011;56967;43.538;-5.646;2022-11-20T05:26:14;0.60;;;0.60;;
69703;SDS011;56967;43.538;-5.646;2022-11-20T05:28:41;0.70;;;0.70;;
69703;SDS011;56967;43.538;-5.646;2022-11-20T05:31:07;1.60;;;0.32;;
69703;SDS011;56967;43.538;-5.646;2022-11-20T05:33:34;0.70;;;0.50;;
69703;SDS011;56967;43.538;-5.646;2022-11-20T05:36:04;0.50;;;0.50;;
69703;SDS011;56967;43.538;-5.646;2022-11-20T05:38:29;0.93;;;0.40;;
69703;SDS011;56967;43.538;-5.646;2022-11-20T05:40:55;0.55;;;0.40;;
69703;SDS011;56967;43.538;-5.646;2022-11-20T05:43:28;1.30;;;0.50;;
69703;SDS011;56967;43.538;-5.646;2022-11-20T05:45:57;1.20;;;0.70;;
69703;SDS011;56967;43.538;-5.646;2022-11-20T05:48:23;1.13;;;0.60;;
69703;SDS011;56967;43.538;-5.646;2022-11-20T05:50:48;1.63;;;0.60;;
69703;SDS011;56967;43.538;-5.646;2022-11-20T05:53:14;2.60;;;0.65;;
69703;SDS011;56967;43.538;-5.646;2022-11-20T05:55:39;1.10;;;0.60;;
69703;SDS011;56967;43.538;-5.646;2022-11-20T05:58:05;1.58;;;0.70;;
69703;SDS011;56967;43.538;-5.646;2022-11-20T06:00:30;1.05;;;0.63;;
69703;SDS011;56967;43.538;-5.646;2022-11-20T06:02:55;3.50;;;0.90;;
69703;SDS011;56967;43.538;-5.646;2022-11-20T06:05:22;2.15;;;0.80;;
69703;SDS011;56967;43.538;-5.646;2022-11-20T06:07:47;3.78;;;1.00;;
69703;SDS011;56967;43.538;-5.646;2022-11-20T06:10:13;2.10;;;0.65;;
69703;SDS011;56967;43.538;-5.646;2022-11-20T06:12:38;3.35;;;0.70;;
69703;SDS011;56967;43.538;-5.646;2022-11-20T06:15:04;2.65;;;0.73;;
69703;SDS011;56967;43.538;-5.646;2022-11-20T06:17:30;4.20;;;0.82;;
69703;SDS011;56967;43.538;-5.646;2022-11-20T06:19:56;2.05;;;0.60;;
69703;SDS011;56967;43.538;-5.646;2022-11-20T06:22:21;3.35;;;0.70;;
69703;SDS011;56967;43.538;-5.646;2022-11-20T06:24:47;4.00;;;0.77;;
69703;SDS011;56967;43.538;-5.646;2022-11-20T06:27:13;1.60;;;0.60;;
69703;SDS011;56967;43.538;-5.646;2022-11-20T06:29:38;2.88;;;0.80;;
69703;SDS011;56967;43.538;-5.646;2022-11-20T06:32:04;5.35;;;1.00;;
69703;SDS011;56967;43.538;-5.646;2022-11-20T06:34:29;3.08;;;0.80;;
69703;SDS011;56967;43.538;-5.646;2022-11-20T06:36:55;6.10;;;0.80;;
69703;SDS011;56967;43.538;-5.646;2022-11-20T06:39:20;3.33;;;0.85;;
69703;SDS011;56967;43.538;-5.646;2022-11-20T06:41:46;4.13;;;1.15;;
69703;SDS011;56967;43.538;-5.646;2022-11-20T06:44:11;4.63;;;1.10;;
69703;SDS011;56967;43.538;-5.646;2022-11-20T06:46:37;3.03;;;0.90;;
69703;SDS011;56967;43.538;-5.646;2022-11-20T06:49:02;5.32;;;1.00;;
69703;SDS011;56967;43.538;-5.646;2022-11-20T06:51:28;5.88;;;0.95;;
69703;SDS011;56967;43.538;-5.646;2022-11-20T06:53:53;4.80;;;1.27;;
69703;SDS011;56967;43.538;-5.646;2022-11-20T06:56:19;6.20;;;1.30;;
69703;SDS011;56967;43.538;-5.646;2022-11-20T06:58:45;5.35;;;1.50;;
69703;SDS011;56967;43.538;-5.646;2022-11-20T07:01:11;5.85;;;2.13;;
69703;SDS011;56967;43.538;-5.646;2022-11-20T07:03:38;5.47;;;1.70;;
69703;SDS011;56967;43.538;-5.646;2022-11-20T07:06:04;4.22;;;2.00;;
69703;SDS011;56967;43.538;-5.646;2022-11-20T07:08:30;8.85;;;2.60;;
69703;SDS011;56967;43.538;-5.646;2022-11-20T07:10:57;7.18;;;2.90;;
69703;SDS011;56967;43.538;-5.646;2022-11-20T07:13:27;7.57;;;2.80;;
69703;SDS011;56967;43.538;-5.646;2022-11-20T07:15:53;9.43;;;3.85;;
69703;SDS011;56967;43.538;-5.646;2022-11-20T07:18:19;15.52;;;6.10;;
69703;SDS011;56967;43.538;-5.646;2022-11-20T07:20:45;12.15;;;7.18;;
69703;SDS011;56967;43.538;-5.646;2022-11-20T07:23:10;14.55;;;8.48;;
69703;SDS011;56967;43.538;-5.646;2022-11-20T07:25:36;18.40;;;8.20;;
69703;SDS011;56967;43.538;-5.646;2022-11-20T07:28:01;18.55;;;7.55;;
69703;SDS011;56967;43.538;-5.646;2022-11-20T07:30:27;11.75;;;6.63;;
69703;SDS011;56967;43.538;-5.646;2022-11-20T07:32:53;11.45;;;4.55;;
69703;SDS011;56967;43.538;-5.646;2022-11-20T07:35:19;11.45;;;4.90;;
69703;SDS011;56967;43.538;-5.646;2022-11-20T07:37:45;10.00;;;4.10;;
69703;SDS011;56967;43.538;-5.646;2022-11-20T07:40:11;14.20;;;3.60;;
69703;SDS011;56967;43.538;-5.646;2022-11-20T07:42:37;13.05;;;3.40;;
69703;SDS011;56967;43.538;-5.646;2022-11-20T07:45:03;8.25;;;2.40;;
69703;SDS011;56967;43.538;-5.646;2022-11-20T07:47:29;9.52;;;2.40;;
69703;SDS011;56967;43.538;-5.646;2022-11-20T07:50:00;5.38;;;1.63;;
69703;SDS011;56967;43.538;-5.646;2022-11-20T07:52:25;6.32;;;1.80;;
69703;SDS011;56967;43.538;-5.646;2022-11-20T07:54:51;8.93;;;1.75;;
69703;SDS011;56967;43.538;-5.646;2022-11-20T07:57:16;9.52;;;1.67;;
69703;SDS011;56967;43.538;-5.646;2022-11-20T07:59:42;9.48;;;2.00;;
69703;SDS011;56967;43.538;-5.646;2022-11-20T08:02:09;9.65;;;1.85;;
69703;SDS011;56967;43.538;-5.646;2022-11-20T08:04:35;9.82;;;1.63;;
69703;SDS011;56967;43.538;-5.646;2022-11-20T08:07:01;9.80;;;1.83;;
69703;SDS011;56967;43.538;-5.646;2022-11-20T08:09:27;11.20;;;2.10;;
69703;SDS011;56967;43.538;-5.646;2022-11-20T08:11:54;8.98;;;2.13;;
69703;SDS011;56967;43.538;-5.646;2022-11-20T08:14:38;14.07;;;2.13;;
69703;SDS011;56967;43.538;-5.646;2022-11-20T08:17:03;12.02;;;2.20;;
69703;SDS011;56967;43.538;-5.646;2022-11-20T08:19:29;13.40;;;2.50;;
69703;SDS011;56967;43.538;-5.646;2022-11-20T08:21:54;12.77;;;2.72;;
69703;SDS011;56967;43.538;-5.646;2022-11-20T08:24:20;11.63;;;2.38;;
69703;SDS011;56967;43.538;-5.646;2022-11-20T08:26:46;16.20;;;2.50;;
69703;SDS011;56967;43.538;-5.646;2022-11-20T08:29:11;12.10;;;2.17;;
69703;SDS011;56967;43.538;-5.646;2022-11-20T08:31:39;11.27;;;2.35;;
69703;SDS011;56967;43.538;-5.646;2022-11-20T08:34:05;18.05;;;3.15;;
69703;SDS011;56967;43.538;-5.646;2022-11-20T08:36:32;20.52;;;3.13;;
69703;SDS011;56967;43.538;-5.646;2022-11-20T08:38:59;15.00;;;2.92;;
69703;SDS011;56967;43.538;-5.646;2022-11-20T08:41:24;13.75;;;2.40;;
69703;SDS011;56967;43.538;-5.646;2022-11-20T08:43:56;16.85;;;2.83;;
69703;SDS011;56967;43.538;-5.646;2022-11-20T08:46:24;10.25;;;2.38;;
69703;SDS011;56967;43.538;-5.646;2022-11-20T08:48:51;16.25;;;3.45;;
69703;SDS011;56967;43.538;-5.646;2022-11-20T08:51:18;13.00;;;2.70;;
69703;SDS011;56967;43.538;-5.646;2022-11-20T08:53:44;16.08;;;2.65;;
69703;SDS011;56967;43.538;-5.646;2022-11-20T08:56:11;11.98;;;2.90;;
69703;SDS011;56967;43.538;-5.646;2022-11-20T08:58:37;14.82;;;2.95;;
69703;SDS011;56967;43.538;-5.646;2022-11-20T09:01:03;13.00;;;2.78;;
69703;SDS011;56967;43.538;-5.646;2022-11-20T09:03:32;13.07;;;2.80;;
69703;SDS011;56967;43.538;-5.646;2022-11-20T09:05:58;18.08;;;3.72;;
69703;SDS011;56967;43.538;-5.646;2022-11-20T09:08:28;15.55;;;2.90;;
69703;SDS011;56967;43.538;-5.646;2022-11-20T09:10:55;14.98;;;2.88;;
69703;SDS011;56967;43.538;-5.646;2022-11-20T09:13:22;15.07;;;3.13;;
69703;SDS011;56967;43.538;-5.646;2022-11-20T09:15:55;13.63;;;3.20;;
69703;SDS011;56967;43.538;-5.646;2022-11-20T09:18:21;15.05;;;3.25;;
69703;SDS011;56967;43.538;-5.646;2022-11-20T09:20:47;13.50;;;3.15;;
69703;SDS011;56967;43.538;-5.646;2022-11-20T09:23:14;13.95;;;2.92;;
69703;SDS011;56967;43.538;-5.646;2022-11-20T09:25:39;18.25;;;3.70;;
69703;SDS011;56967;43.538;-5.646;2022-11-20T09:28:05;13.38;;;2.80;;
69703;SDS011;56967;43.538;-5.646;2022-11-20T09:30:31;18.85;;;3.03;;
69703;SDS011;56967;43.538;-5.646;2022-11-20T09:32:56;17.05;;;2.97;;
69703;SDS011;56967;43.538;-5.646;2022-11-20T09:35:22;13.48;;;2.80;;
69703;SDS011;56967;43.538;-5.646;2022-11-20T09:37:48;11.27;;;3.00;;
69703;SDS011;56967;43.538;-5.646;2022-11-20T09:40:20;19.02;;;3.92;;
69703;SDS011;56967;43.538;-5.646;2022-11-20T09:54:03;23.95;;;4.70;;
69703;SDS011;56967;43.538;-5.646;2022-11-20T09:56:40;18.48;;;3.75;;
69703;SDS011;56967;43.538;-5.646;2022-11-20T09:59:13;21.20;;;3.90;;
69703;SDS011;56967;43.538;-5.646;2022-11-20T10:01:52;20.92;;;4.40;;
69703;SDS011;56967;43.538;-5.646;2022-11-20T10:04:19;29.13;;;4.97;;
69703;SDS011;56967;43.538;-5.646;2022-11-20T10:09:30;23.58;;;4.32;;
69703;SDS011;56967;43.538;-5.646;2022-11-20T10:23:12;16.73;;;3.83;;
69703;SDS011;56967;43.538;-5.646;2022-11-20T10:25:44;13.63;;;3.50;;
69703;SDS011;56967;43.538;-5.646;2022-11-20T10:28:28;18.02;;;3.50;;
69703;SDS011;56967;43.538;-5.646;2022-11-20T10:33:41;16.80;;;3.83;;
69703;SDS011;56967;43.538;-5.646;2022-11-20T10:38:46;24.88;;;4.60;;
69703;SDS011;56967;43.538;-5.646;2022-11-20T10:41:23;27.08;;;4.63;;
69703;SDS011;56967;43.538;-5.646;2022-11-20T10:44:03;18.70;;;3.70;;
69703;SDS011;56967;43.538;-5.646;2022-11-20T10:46:43;21.70;;;5.07;;
69703;SDS011;56967;43.538;-5.646;2022-11-20T10:49:14;32.58;;;4.65;;
69703;SDS011;56967;43.538;-5.646;2022-11-20T11:00:12;19.30;;;3.50;;
69703;SDS011;56967;43.538;-5.646;2022-11-20T11:07:46;23.90;;;4.80;;
69703;SDS011;56967;43.538;-5.646;2022-11-20T11:12:46;24.02;;;4.60;;
69703;SDS011;56967;43.538;-5.646;2022-11-20T11:18:22;19.52;;;4.05;;
69703;SDS011;56967;43.538;-5.646;2022-11-20T11:20:52;31.17;;;4.80;;
69703;SDS011;56967;43.538;-5.646;2022-11-20T11:23:26;19.65;;;3.90;;
69703;SDS011;56967;43.538;-5.646;2022-11-20T11:25:57;25.52;;;4.00;;
69703;SDS011;56967;43.538;-5.646;2022-11-20T11:28:24;16.92;;;3.65;;
69703;SDS011;56967;43.538;-5.646;2022-11-20T11:30:52;14.75;;;3.42;;
69703;SDS011;56967;43.538;-5.646;2022-11-20T11:33:20;19.27;;;3.80;;
69703;SDS011;56967;43.538;-5.646;2022-11-20T11:35:47;14.93;;;3.15;;
69703;SDS011;56967;43.538;-5.646;2022-11-20T11:38:36;22.08;;;3.72;;
69703;SDS011;56967;43.538;-5.646;2022-11-20T11:41:03;18.08;;;3.08;;
69703;SDS011;56967;43.538;-5.646;2022-11-20T11:43:35;15.13;;;3.08;;
69703;SDS011;56967;43.538;-5.646;2022-11-20T11:48:55;16.08;;;3.92;;
69703;SDS011;56967;43.538;-5.646;2022-11-20T11:51:21;16.63;;;3.33;;
69703;SDS011;56967;43.538;-5.646;2022-11-20T11:53:46;15.20;;;3.25;;
69703;SDS011;56967;43.538;-5.646;2022-11-20T11:56:12;12.38;;;2.97;;
69703;SDS011;56967;43.538;-5.646;2022-11-20T11:58:46;9.75;;;2.35;;
69703;SDS011;56967;43.538;-5.646;2022-11-20T12:07:20;11.93;;;3.30;;
69703;SDS011;56967;43.538;-5.646;2022-11-20T12:10:08;11.93;;;2.75;;
69703;SDS011;56967;43.538;-5.646;2022-11-20T12:12:42;8.95;;;2.72;;
69703;SDS011;56967;43.538;-5.646;2022-11-20T12:15:12;10.05;;;3.03;;
69703;SDS011;56967;43.538;-5.646;2022-11-20T12:17:41;13.45;;;3.13;;
69703;SDS011;56967;43.538;-5.646;2022-11-20T12:20:15;11.18;;;3.20;;
69703;SDS011;56967;43.538;-5.646;2022-11-20T12:22:54;13.23;;;3.20;;
69703;SDS011;56967;43.538;-5.646;2022-11-20T12:25:30;19.67;;;3.70;;
69703;SDS011;56967;43.538;-5.646;2022-11-20T12:28:02;12.63;;;2.70;;
69703;SDS011;56967;43.538;-5.646;2022-11-20T12:30:54;16.42;;;3.30;;
69703;SDS011;56967;43.538;-5.646;2022-11-20T12:33:55;13.40;;;2.90;;
69703;SDS011;56967;43.538;-5.646;2022-11-20T12:41:46;12.75;;;2.97;;
69703;SDS011;56967;43.538;-5.646;2022-11-20T12:44:40;14.50;;;2.72;;
69703;SDS011;56967;43.538;-5.646;2022-11-20T13:02:09;9.93;;;3.25;;
69703;SDS011;56967;43.538;-5.646;2022-11-20T13:07:28;15.90;;;3.65;;
69703;SDS011;56967;43.538;-5.646;2022-11-20T13:09:55;20.67;;;4.00;;
69703;SDS011;56967;43.538;-5.646;2022-11-20T13:12:30;14.43;;;4.07;;
69703;SDS011;56967;43.538;-5.646;2022-11-20T13:15:14;22.40;;;4.32;;
69703;SDS011;56967;43.538;-5.646;2022-11-20T13:17:54;28.02;;;5.28;;
69703;SDS011;56967;43.538;-5.646;2022-11-20T13:20:21;14.40;;;4.43;;
69703;SDS011;56967;43.538;-5.646;2022-11-20T13:22:51;13.38;;;3.47;;
69703;SDS011;56967;43.538;-5.646;2022-11-20T13:25:23;19.75;;;4.50;;
69703;SDS011;56967;43.538;-5.646;2022-11-20T13:27:50;18.98;;;4.03;;
69703;SDS011;56967;43.538;-5.646;2022-11-20T13:30:17;18.70;;;5.15;;
69703;SDS011;56967;43.538;-5.646;2022-11-20T13:32:58;13.30;;;3.30;;
69703;SDS011;56967;43.538;-5.646;2022-11-20T13:35:30;17.73;;;4.40;;
69703;SDS011;56967;43.538;-5.646;2022-11-20T13:38:06;20.33;;;4.63;;
69703;SDS011;56967;43.538;-5.646;2022-11-20T13:40:38;12.07;;;3.08;;
69703;SDS011;56967;43.538;-5.646;2022-11-20T13:43:37;14.88;;;3.63;;
69703;SDS011;56967;43.538;-5.646;2022-11-20T13:46:06;20.27;;;4.03;;
69703;SDS011;56967;43.538;-5.646;2022-11-20T13:56:22;18.30;;;3.78;;
69703;SDS011;56967;43.538;-5.646;2022-11-20T14:02:11;24.35;;;4.28;;
69703;SDS011;56967;43.538;-5.646;2022-11-20T14:04:45;17.40;;;4.13;;
69703;SDS011;56967;43.538;-5.646;2022-11-20T14:07:14;15.30;;;3.70;;
69703;SDS011;56967;43.538;-5.646;2022-11-20T14:09:49;23.92;;;4.63;;
69703;SDS011;56967;43.538;-5.646;2022-11-20T14:12:20;22.58;;;5.35;;
69703;SDS011;56967;43.538;-5.646;2022-11-20T14:14:52;25.27;;;3.90;;
69703;SDS011;56967;43.538;-5.646;2022-11-20T14:17:23;22.15;;;3.88;;
69703;SDS011;56967;43.538;-5.646;2022-11-20T14:19:51;20.63;;;4.82;;
69703;SDS011;56967;43.538;-5.646;2022-11-20T14:22:23;30.27;;;5.70;;
69703;SDS011;56967;43.538;-5.646;2022-11-20T14:27:37;19.52;;;3.72;;
69703;SDS011;56967;43.538;-5.646;2022-11-20T14:30:06;25.63;;;5.00;;
69703;SDS011;56967;43.538;-5.646;2022-11-20T14:32:39;16.85;;;3.65;;
69703;SDS011;56967;43.538;-5.646;2022-11-20T14:35:10;32.00;;;6.00;;
69703;SDS011;56967;43.538;-5.646;2022-11-20T14:37:44;21.38;;;4.82;;
69703;SDS011;56967;43.538;-5.646;2022-11-20T14:40:23;28.05;;;5.45;;
69703;SDS011;56967;43.538;-5.646;2022-11-20T14:42:49;36.35;;;6.57;;
69703;SDS011;56967;43.538;-5.646;2022-11-20T14:45:15;20.92;;;4.75;;
69703;SDS011;56967;43.538;-5.646;2022-11-20T14:47:41;21.10;;;3.50;;
69703;SDS011;56967;43.538;-5.646;2022-11-20T14:50:22;21.90;;;4.50;;
69703;SDS011;56967;43.538;-5.646;2022-11-20T14:52:56;21.90;;;4.60;;
69703;SDS011;56967;43.538;-5.646;2022-11-20T14:58:05;16.77;;;3.80;;
69703;SDS011;56967;43.538;-5.646;2022-11-20T15:00:52;17.08;;;4.03;;
69703;SDS011;56967;43.538;-5.646;2022-11-20T15:03:19;41.78;;;5.38;;
69703;SDS011;56967;43.538;-5.646;2022-11-20T15:05:45;32.88;;;5.28;;
69703;SDS011;56967;43.538;-5.646;2022-11-20T15:08:13;24.60;;;3.90;;
69703;SDS011;56967;43.538;-5.646;2022-11-20T15:10:45;17.73;;;3.33;;
69703;SDS011;56967;43.538;-5.646;2022-11-20T15:13:12;16.33;;;3.25;;
69703;SDS011;56967;43.538;-5.646;2022-11-20T15:15:46;17.88;;;3.60;;
69703;SDS011;56967;43.538;-5.646;2022-11-20T15:18:14;16.23;;;3.25;;
69703;SDS011;56967;43.538;-5.646;2022-11-20T15:20:42;27.55;;;4.90;;
69703;SDS011;56967;43.538;-5.646;2022-11-20T15:23:12;14.32;;;2.97;;
69703;SDS011;56967;43.538;-5.646;2022-11-20T15:25:40;17.45;;;3.45;;
69703;SDS011;56967;43.538;-5.646;2022-11-20T15:28:27;12.68;;;2.53;;
69703;SDS011;56967;43.538;-5.646;2022-11-20T15:30:56;16.35;;;3.45;;
69703;SDS011;56967;43.538;-5.646;2022-11-20T15:33:21;17.85;;;3.47;;
69703;SDS011;56967;43.538;-5.646;2022-11-20T15:35:47;15.40;;;3.53;;
69703;SDS011;56967;43.538;-5.646;2022-11-20T15:38:12;21.67;;;3.40;;
69703;SDS011;56967;43.538;-5.646;2022-11-20T15:40:38;19.02;;;3.25;;
69703;SDS011;56967;43.538;-5.646;2022-11-20T15:43:03;12.65;;;2.53;;
69703;SDS011;56967;43.538;-5.646;2022-11-20T15:45:33;12.43;;;2.60;;
69703;SDS011;56967;43.538;-5.646;2022-11-20T15:48:04;14.40;;;2.90;;
69703;SDS011;56967;43.538;-5.646;2022-11-20T15:50:35;11.95;;;2.45;;
69703;SDS011;56967;43.538;-5.646;2022-11-20T15:53:03;13.48;;;2.58;;
69703;SDS011;56967;43.538;-5.646;2022-11-20T15:55:29;17.70;;;2.63;;
69703;SDS011;56967;43.538;-5.646;2022-11-20T15:57:55;12.88;;;2.78;;
69703;SDS011;56967;43.538;-5.646;2022-11-20T16:00:20;16.88;;;4.88;;
69703;SDS011;56967;43.538;-5.646;2022-11-20T16:02:46;19.55;;;5.35;;
69703;SDS011;56967;43.538;-5.646;2022-11-20T16:05:11;17.63;;;6.07;;
69703;SDS011;56967;43.538;-5.646;2022-11-20T16:07:38;19.10;;;5.47;;
69703;SDS011;56967;43.538;-5.646;2022-11-20T16:10:04;19.80;;;5.80;;
69703;SDS011;56967;43.538;-5.646;2022-11-20T16:12:30;18.77;;;8.52;;
69703;SDS011;56967;43.538;-5.646;2022-11-20T16:15:14;32.70;;;12.45;;
69703;SDS011;56967;43.538;-5.646;2022-11-20T16:17:58;24.30;;;5.50;;
69703;SDS011;56967;43.538;-5.646;2022-11-20T16:20:23;17.33;;;4.68;;
69703;SDS011;56967;43.538;-5.646;2022-11-20T16:22:48;18.58;;;5.47;;
69703;SDS011;56967;43.538;-5.646;2022-11-20T16:25:14;30.67;;;6.28;;
69703;SDS011;56967;43.538;-5.646;2022-11-20T16:27:40;57.15;;;8.68;;